As, Belgium
Current Conditions -  °F | °C
As of 1:55 PM on Tuesday 21 Oct 2014 (Local Time) from EHBK Reporting Station
Overcast Overcast  
Wind Chill: 55°   Ceiling: 1500
Heat Index: 55°   Visibility: 6mi
Dew Point: 50°   Wind: 25mph
Humidity: 82%   Direction: 210°SSW
Pressure: 29.59"   Gusts: NA
Location:  51.01°N, 5.58°E
Report Text: EHBK 211155Z AUTO 21022KT 180V240 9999 SCT012 BKN015 OVC01913/10 Q1002 TEMPO 22022G35KT 6000 -RA -SHRA BKN013 SCT025CB
Loading
Personal Weather Stations






























Interactive Weather Map
Tropical Storm Tracking
New forecast layout! Learn more

10-Day Weather Forecast

Advertisements
Track Severe Weather on mobile